Time;durP1;ratioP1;P1;durP2;ratioP2;P2;SDS_P1;SDS_P2;PMS_P1;PMS_P2;Temp;Humidity;BMP_temperature;BMP_pressure;BME280_temperature;BME280_humidity;BME280_pressure;Samples;Min_cycle;Max_cycle;Signal;HPM_P1;HPM_P2
2022/04/20 00:02:09;;;;;;;22.75;11.82;;;;;;;;;;4994356;28;20480;-77
2022/04/20 00:04:55;;;;;;;24.65;11.80;;;;;;;;;;4994200;28;20042;-80
2022/04/20 00:07:40;;;;;;;26.23;11.35;;;;;;;;;;4994240;28;20488;-79
2022/04/20 00:10:30;;;;;;;20.23;10.55;;;;;;;;;;4994324;28;20042;-79
2022/04/20 00:13:15;;;;;;;25.20;11.25;;;;;;;;;;4994210;28;20484;-79
2022/04/20 00:16:01;;;;;;;22.75;11.35;;;;;;;;;;4994558;28;20476;-78
2022/04/20 00:18:46;;;;;;;22.75;12.10;;;;;;;;;;4994310;28;20046;-80
2022/04/20 00:21:31;;;;;;;20.20;10.82;;;;;;;;;;4994054;28;20050;-80
2022/04/20 00:24:17;;;;;;;24.85;11.50;;;;;;;;;;5001097;28;20050;-81
2022/04/20 00:27:03;;;;;;;28.98;11.73;;;;;;;;;;5000559;28;20054;-80
2022/04/20 00:29:48;;;;;;;25.38;12.25;;;;;;;;;;4994363;28;20038;-80
2022/04/20 00:32:34;;;;;;;21.30;11.52;;;;;;;;;;4993942;28;20047;-80
2022/04/20 00:35:20;;;;;;;22.30;11.43;;;;;;;;;;4985853;28;20042;-81
2022/04/20 00:38:05;;;;;;;21.02;10.60;;;;;;;;;;4993997;28;20038;-81
2022/04/20 00:40:51;;;;;;;18.40;9.85;;;;;;;;;;4994456;28;20054;-80
2022/04/20 00:43:37;;;;;;;24.35;11.07;;;;;;;;;;4984063;28;20396;-81
2022/04/20 00:46:24;;;;;;;24.25;11.45;;;;;;;;;;4995824;28;20058;-81
2022/04/20 00:49:10;;;;;;;24.70;11.55;;;;;;;;;;4989346;28;20042;-81
2022/04/20 00:51:57;;;;;;;23.65;11.85;;;;;;;;;;4989723;28;20046;-82
2022/04/20 00:54:44;;;;;;;21.88;12.07;;;;;;;;;;4989600;28;20479;-82
2022/04/20 00:57:30;;;;;;;24.75;11.02;;;;;;;;;;4989675;28;20038;-80
2022/04/20 01:00:16;;;;;;;27.65;11.00;;;;;;;;;;4989628;28;20050;-80
2022/04/20 01:03:05;;;;;;;26.13;9.20;;;;;;;;;;4989572;28;20476;-80
2022/04/20 01:06:08;;;;;;;19.80;9.30;;;;;;;;;;4989250;28;20054;-80
2022/04/20 01:09:19;;;;;;;16.88;8.68;;;;;;;;;;4989150;28;20046;-81
2022/04/20 01:12:24;;;;;;;15.35;8.45;;;;;;;;;;5003599;28;20411;-81
2022/04/20 01:15:44;;;;;;;20.23;8.88;;;;;;;;;;4918190;29;20048;-80
2022/04/20 01:18:43;;;;;;;14.85;8.75;;;;;;;;;;4997292;28;20399;-80
2022/04/20 01:22:08;;;;;;;15.85;8.95;;;;;;;;;;4983878;28;20047;-82
2022/04/20 01:25:28;;;;;;;23.27;9.88;;;;;;;;;;4937109;29;20043;-81
2022/04/20 01:28:23;;;;;;;22.92;10.75;;;;;;;;;;4989293;28;20058;-81
2022/04/20 01:31:26;;;;;;;23.90;11.95;;;;;;;;;;5011175;28;20043;-80
2022/04/20 01:34:34;;;;;;;22.63;11.65;;;;;;;;;;5015626;28;20047;-80
2022/04/20 01:37:19;;;;;;;23.95;11.73;;;;;;;;;;4996876;28;20039;-80
2022/04/20 01:40:07;;;;;;;21.13;11.93;;;;;;;;;;4988956;28;20043;-80
2022/04/20 01:42:52;;;;;;;19.95;11.35;;;;;;;;;;4988666;28;20415;-79
2022/04/20 01:45:37;;;;;;;20.17;11.40;;;;;;;;;;4997060;28;20046;-80
2022/04/20 01:48:59;;;;;;;18.77;10.60;;;;;;;;;;4988423;28;20054;-79
2022/04/20 01:52:07;;;;;;;20.15;10.80;;;;;;;;;;4988450;28;20050;-79
2022/04/20 01:55:12;;;;;;;17.00;10.48;;;;;;;;;;4988474;28;20042;-81
2022/04/20 01:58:16;;;;;;;19.88;10.73;;;;;;;;;;4995310;28;20034;-81
2022/04/20 02:04:25;;;;;;;44.35;17.02;;;;;;;;;;4987998;28;20476;-81
2022/04/20 02:07:10;;;;;;;51.88;18.90;;;;;;;;;;4987599;28;20050;-81
2022/04/20 02:10:01;;;;;;;48.00;19.55;;;;;;;;;;4988023;28;20054;-80
2022/04/20 02:12:47;;;;;;;42.80;14.82;;;;;;;;;;5001711;28;20046;-81
2022/04/20 02:16:03;;;;;;;33.83;13.50;;;;;;;;;;4993670;28;20046;-80
2022/04/20 02:18:56;;;;;;;29.08;11.85;;;;;;;;;;4995640;28;20046;-80
2022/04/20 02:21:57;;;;;;;23.83;10.77;;;;;;;;;;4987821;28;20038;-80
2022/04/20 02:24:43;;;;;;;19.65;10.30;;;;;;;;;;4987459;28;20038;-80
2022/04/20 02:27:28;;;;;;;19.02;9.65;;;;;;;;;;4987583;28;20043;-80
2022/04/20 02:30:13;;;;;;;16.27;9.13;;;;;;;;;;5001571;28;20038;-82
2022/04/20 02:32:59;;;;;;;16.80;8.88;;;;;;;;;;5002742;28;20042;-80
2022/04/20 02:35:44;;;;;;;18.33;9.18;;;;;;;;;;4988226;28;20050;-80
2022/04/20 02:38:30;;;;;;;17.23;9.07;;;;;;;;;;4987180;28;20050;-80
2022/04/20 02:41:16;;;;;;;17.90;8.02;;;;;;;;;;4995721;28;20046;-80
2022/04/20 02:44:02;;;;;;;15.63;9.15;;;;;;;;;;4995169;28;20050;-79
2022/04/20 02:46:48;;;;;;;19.00;9.77;;;;;;;;;;4995411;28;20431;-79
2022/04/20 02:49:35;;;;;;;11.90;6.75;;;;;;;;;;5000808;28;20038;-80
2022/04/20 02:52:22;;;;;;;15.32;7.40;;;;;;;;;;4987082;28;20038;-80
2022/04/20 02:55:08;;;;;;;12.00;7.25;;;;;;;;;;4987309;28;20038;-80
2022/04/20 02:57:54;;;;;;;14.07;8.20;;;;;;;;;;4995012;28;20038;-78
2022/04/20 03:00:40;;;;;;;13.77;7.10;;;;;;;;;;4987014;28;20042;-80
2022/04/20 03:03:47;;;;;;;11.55;6.05;;;;;;;;;;4987630;28;20054;-80
2022/04/20 03:06:45;;;;;;;13.07;6.28;;;;;;;;;;4987098;28;20051;-80
2022/04/20 03:09:41;;;;;;;15.32;6.32;;;;;;;;;;4987307;28;20066;-79
2022/04/20 03:12:27;;;;;;;15.10;7.13;;;;;;;;;;4987208;28;20042;-81
2022/04/20 03:15:13;;;;;;;14.85;7.05;;;;;;;;;;4987060;28;20050;-80
2022/04/20 03:17:59;;;;;;;12.98;7.72;;;;;;;;;;4987444;28;20042;-79
2022/04/20 03:20:45;;;;;;;16.17;8.90;;;;;;;;;;4995684;28;20380;-80
2022/04/20 03:23:30;;;;;;;17.70;8.25;;;;;;;;;;4994840;28;20046;-78
2022/04/20 03:26:21;;;;;;;20.15;9.07;;;;;;;;;;4986592;28;20034;-82
2022/04/20 03:29:26;;;;;;;17.33;9.52;;;;;;;;;;5001460;28;20407;-81
2022/04/20 03:32:15;;;;;;;21.10;9.88;;;;;;;;;;4986872;28;20419;-81
2022/04/20 03:35:01;;;;;;;17.77;9.45;;;;;;;;;;5001054;28;20046;-80
2022/04/20 03:37:46;;;;;;;17.20;9.15;;;;;;;;;;4994566;28;20042;-79
2022/04/20 03:40:32;;;;;;;16.48;9.13;;;;;;;;;;4986449;28;20492;-79
2022/04/20 03:43:18;;;;;;;17.08;9.40;;;;;;;;;;4994276;28;20042;-79
2022/04/20 03:46:05;;;;;;;19.17;8.68;;;;;;;;;;4987925;28;20058;-78
2022/04/20 03:48:53;;;;;;;14.30;7.63;;;;;;;;;;5008436;28;20050;-77
2022/04/20 03:51:39;;;;;;;22.00;10.30;;;;;;;;;;5001119;28;20042;-78
2022/04/20 03:54:24;;;;;;;19.13;9.52;;;;;;;;;;4985475;28;20042;-79
2022/04/20 03:57:10;;;;;;;11.65;6.63;;;;;;;;;;4985753;28;20404;-79
2022/04/20 04:00:04;;;;;;;10.88;6.60;;;;;;;;;;4985984;28;20058;-78
2022/04/20 04:02:52;;;;;;;14.65;7.65;;;;;;;;;;5000323;28;20400;-78
2022/04/20 04:05:47;;;;;;;13.50;7.60;;;;;;;;;;4973997;28;20421;-78
2022/04/20 04:08:39;;;;;;;13.32;7.78;;;;;;;;;;4985939;28;20042;-78
2022/04/20 04:11:25;;;;;;;16.95;9.98;;;;;;;;;;4994587;28;20044;-80
2022/04/20 04:14:10;;;;;;;13.75;8.10;;;;;;;;;;4985907;28;20042;-79
2022/04/20 04:16:56;;;;;;;21.65;11.43;;;;;;;;;;4985638;28;20046;-79
2022/04/20 04:19:42;;;;;;;16.83;9.85;;;;;;;;;;4999658;28;20046;-80
2022/04/20 04:22:27;;;;;;;16.48;8.80;;;;;;;;;;4990021;28;20050;-79
2022/04/20 04:25:29;;;;;;;19.83;10.05;;;;;;;;;;4990207;28;20050;-80
2022/04/20 04:28:18;;;;;;;22.80;12.00;;;;;;;;;;5003167;28;20046;-79
2022/04/20 04:31:04;;;;;;;24.90;13.82;;;;;;;;;;5003616;28;20043;-79
2022/04/20 04:33:51;;;;;;;24.10;13.85;;;;;;;;;;4989682;28;20042;-79
2022/04/20 04:36:37;;;;;;;26.15;13.27;;;;;;;;;;4989878;28;20042;-79
2022/04/20 04:39:23;;;;;;;31.25;16.10;;;;;;;;;;4997716;28;20050;-79
2022/04/20 04:42:10;;;;;;;32.50;16.92;;;;;;;;;;4989581;28;20047;-79
2022/04/20 04:48:36;;;;;;;38.45;18.35;;;;;;;;;;4997484;28;20054;-79
2022/04/20 04:51:04;;;;;;;44.15;21.92;;;;;;;;;;4989353;28;20047;-78
2022/04/20 04:53:51;;;;;;;54.85;25.35;;;;;;;;;;4997399;28;20046;-81
2022/04/20 04:56:47;;;;;;;51.08;24.55;;;;;;;;;;5003246;28;20050;-80
2022/04/20 04:59:37;;;;;;;45.83;25.35;;;;;;;;;;4988954;28;20050;-79
2022/04/20 05:02:23;;;;;;;37.72;21.45;;;;;;;;;;4988772;28;20412;-79
2022/04/20 05:05:09;;;;;;;44.08;23.48;;;;;;;;;;5000913;28;20081;-79
2022/04/20 05:07:55;;;;;;;35.22;18.77;;;;;;;;;;5002093;28;20050;-77
2022/04/20 05:10:41;;;;;;;41.45;23.30;;;;;;;;;;4987818;28;20062;-78
2022/04/20 05:13:27;;;;;;;34.83;20.75;;;;;;;;;;5002549;28;20050;-79
2022/04/20 05:16:12;;;;;;;42.05;22.90;;;;;;;;;;4988939;28;20046;-78
2022/04/20 05:19:00;;;;;;;36.78;22.20;;;;;;;;;;5002430;28;20042;-79
2022/04/20 05:21:45;;;;;;;22.73;14.50;;;;;;;;;;4989200;28;20054;-78
2022/04/20 05:24:35;;;;;;;51.42;30.58;;;;;;;;;;4989256;28;20046;-78
2022/04/20 05:27:23;;;;;;;33.58;21.02;;;;;;;;;;4988712;28;20042;-79
2022/04/20 05:30:14;;;;;;;45.08;27.60;;;;;;;;;;5002418;28;20399;-79
2022/04/20 05:33:00;;;;;;;68.28;41.53;;;;;;;;;;4988470;28;20145;-79
2022/04/20 05:35:46;;;;;;;32.22;20.83;;;;;;;;;;4988731;28;20042;-78
2022/04/20 05:41:42;;;;;;;22.25;12.20;;;;;;;;;;4988683;28;20042;-79
2022/04/20 05:44:34;;;;;;;22.45;13.98;;;;;;;;;;4984178;28;20046;-78
2022/04/20 05:47:20;;;;;;;53.03;26.52;;;;;;;;;;4988222;28;20042;-80
2022/04/20 05:50:05;;;;;;;31.42;19.05;;;;;;;;;;4996372;28;20042;-80
2022/04/20 05:52:51;;;;;;;29.45;14.20;;;;;;;;;;4989180;28;20046;-79
2022/04/20 05:55:36;;;;;;;23.98;14.00;;;;;;;;;;4996762;28;20396;-80
2022/04/20 05:58:22;;;;;;;26.13;17.52;;;;;;;;;;5002134;28;20042;-79
2022/04/20 06:01:10;;;;;;;27.75;16.45;;;;;;;;;;5001863;28;20492;-78
2022/04/20 06:04:07;;;;;;;39.45;25.98;;;;;;;;;;5000475;28;20504;-78
2022/04/20 06:07:16;;;;;;;53.10;37.70;;;;;;;;;;5002149;28;20039;-78
2022/04/20 06:10:14;;;;;;;42.03;25.45;;;;;;;;;;4988166;28;20046;-79
2022/04/20 06:13:04;;;;;;;32.65;18.48;;;;;;;;;;4996770;28;20042;-79
2022/04/20 06:15:55;;;;;;;29.10;17.88;;;;;;;;;;4995649;28;20042;-80
2022/04/20 06:18:47;;;;;;;25.75;16.70;;;;;;;;;;4987690;28;20047;-80
2022/04/20 06:21:43;;;;;;;23.63;14.75;;;;;;;;;;5001579;28;20046;-78
2022/04/20 06:24:40;;;;;;;27.67;15.57;;;;;;;;;;5002314;28;20034;-78
2022/04/20 06:27:42;;;;;;;26.55;17.52;;;;;;;;;;5001036;28;20038;-79
2022/04/20 06:31:05;;;;;;;28.67;17.33;;;;;;;;;;4942072;29;20047;-79
2022/04/20 06:34:11;;;;;;;21.02;13.60;;;;;;;;;;4935805;29;20051;-78
2022/04/20 06:37:05;;;;;;;18.45;13.48;;;;;;;;;;4987447;28;20039;-79
2022/04/20 06:40:21;;;;;;;26.58;13.32;;;;;;;;;;4987418;28;20046;-79
2022/04/20 06:43:25;;;;;;;21.65;14.35;;;;;;;;;;4994413;28;20051;-80
2022/04/20 06:46:28;;;;;;;26.42;15.27;;;;;;;;;;4987563;28;20046;-78
2022/04/20 06:49:34;;;;;;;22.25;14.57;;;;;;;;;;4987041;28;20508;-78
2022/04/20 06:59:01;;;;;;;34.95;22.33;;;;;;;;;;4987100;28;20034;-77
2022/04/20 07:02:05;;;;;;;33.22;20.13;;;;;;;;;;5001687;28;20415;-79
2022/04/20 07:05:05;;;;;;;28.00;16.85;;;;;;;;;;5000378;28;20042;-79
2022/04/20 07:07:57;;;;;;;30.23;19.90;;;;;;;;;;5000492;28;20046;-80
2022/04/20 07:11:08;;;;;;;33.17;20.23;;;;;;;;;;5000944;28;20480;-80
2022/04/20 07:13:55;;;;;;;33.38;21.33;;;;;;;;;;4986477;28;20039;-80
2022/04/20 07:16:40;;;;;;;32.03;21.60;;;;;;;;;;5000454;28;20042;-78
2022/04/20 07:19:39;;;;;;;24.50;15.45;;;;;;;;;;5000065;28;20038;-77
2022/04/20 07:22:48;;;;;;;25.77;16.50;;;;;;;;;;4972685;28;20047;-77
2022/04/20 07:25:47;;;;;;;33.28;20.70;;;;;;;;;;4985912;28;20054;-76
2022/04/20 07:28:34;;;;;;;37.72;21.40;;;;;;;;;;5001438;28;20468;-78
2022/04/20 07:31:22;;;;;;;26.77;15.70;;;;;;;;;;5000937;28;20046;-77
2022/04/20 07:34:26;;;;;;;35.53;23.17;;;;;;;;;;4994551;28;20488;-77
2022/04/20 07:37:34;;;;;;;36.00;24.00;;;;;;;;;;4974521;28;20483;-76
2022/04/20 07:40:48;;;;;;;28.65;16.85;;;;;;;;;;5000873;28;20050;-77
2022/04/20 07:44:00;;;;;;;28.95;18.65;;;;;;;;;;4994270;28;20050;-74
2022/04/20 07:47:05;;;;;;;35.63;20.17;;;;;;;;;;4994265;28;20046;-76
2022/04/20 07:50:18;;;;;;;28.30;17.58;;;;;;;;;;4994254;28;20046;-76
2022/04/20 07:53:18;;;;;;;31.45;15.95;;;;;;;;;;4994182;28;20038;-76
2022/04/20 07:56:33;;;;;;;25.95;15.43;;;;;;;;;;4962994;28;20481;-77
2022/04/20 07:59:40;;;;;;;35.85;21.35;;;;;;;;;;4985771;28;20038;-76
2022/04/20 08:02:49;;;;;;;41.40;26.63;;;;;;;;;;5000918;28;20054;-77
2022/04/20 08:05:47;;;;;;;37.08;23.27;;;;;;;;;;4999810;28;20034;-76
2022/04/20 08:08:32;;;;;;;45.05;27.90;;;;;;;;;;4986001;28;20050;-76
2022/04/20 08:11:19;;;;;;;46.60;27.58;;;;;;;;;;4999707;28;20039;-76
2022/04/20 08:14:10;;;;;;;38.17;23.58;;;;;;;;;;4986240;28;20050;-77
2022/04/20 08:17:06;;;;;;;41.00;27.35;;;;;;;;;;4986213;28;20488;-77
2022/04/20 08:20:21;;;;;;;51.05;28.70;;;;;;;;;;4963474;28;20046;-76
2022/04/20 08:23:14;;;;;;;47.40;27.13;;;;;;;;;;4994134;28;20054;-76
2022/04/20 08:26:00;;;;;;;49.70;26.75;;;;;;;;;;4998497;28;20496;-76
2022/04/20 08:28:46;;;;;;;45.78;26.27;;;;;;;;;;5000356;28;20399;-76
2022/04/20 08:31:31;;;;;;;25.65;16.25;;;;;;;;;;5000398;28;20042;-76
2022/04/20 08:34:16;;;;;;;25.45;16.05;;;;;;;;;;4993689;28;20058;-77
2022/04/20 08:37:02;;;;;;;20.38;13.25;;;;;;;;;;4993651;28;20050;-77
2022/04/20 08:39:48;;;;;;;16.90;11.98;;;;;;;;;;4993738;28;20042;-75
2022/04/20 08:42:34;;;;;;;19.20;13.20;;;;;;;;;;4993768;28;20047;-75
2022/04/20 08:45:20;;;;;;;15.98;10.98;;;;;;;;;;4994096;28;20401;-75
2022/04/20 08:48:06;;;;;;;22.13;16.55;;;;;;;;;;4993920;28;20046;-76
2022/04/20 08:50:53;;;;;;;24.20;15.77;;;;;;;;;;4993831;28;20038;-79
2022/04/20 08:53:38;;;;;;;24.88;15.95;;;;;;;;;;4979497;28;20050;-78
2022/04/20 08:59:28;;;;;;;24.00;15.02;;;;;;;;;;4994297;28;20388;-79
2022/04/20 09:02:15;;;;;;;12.63;7.03;;;;;;;;;;4993678;28;20035;-80
2022/04/20 09:05:00;;;;;;;12.30;8.15;;;;;;;;;;4994123;28;20473;-79
2022/04/20 09:07:46;;;;;;;12.27;7.15;;;;;;;;;;4988349;28;20472;-77
2022/04/20 09:10:32;;;;;;;12.73;8.50;;;;;;;;;;4997136;28;20038;-78
2022/04/20 09:13:39;;;;;;;19.83;10.93;;;;;;;;;;4997003;28;20054;-79
2022/04/20 09:16:30;;;;;;;25.65;13.93;;;;;;;;;;5003549;28;20077;-75
2022/04/20 09:19:24;;;;;;;32.05;15.77;;;;;;;;;;4997025;28;20046;-77
2022/04/20 09:22:20;;;;;;;27.92;11.90;;;;;;;;;;4997445;28;20050;-77
2022/04/20 09:25:06;;;;;;;27.02;13.20;;;;;;;;;;4997024;28;20046;-78
2022/04/20 09:27:51;;;;;;;9.27;4.88;;;;;;;;;;4997520;28;20054;-77
2022/04/20 09:30:39;;;;;;;12.57;8.20;;;;;;;;;;4996953;28;20054;-76
2022/04/20 09:33:45;;;;;;;12.63;6.72;;;;;;;;;;4996777;28;20480;-77
2022/04/20 09:36:48;;;;;;;13.68;7.63;;;;;;;;;;4997103;28;20039;-77
2022/04/20 09:39:33;;;;;;;17.40;9.82;;;;;;;;;;4995784;28;20404;-78
2022/04/20 09:42:19;;;;;;;21.48;11.48;;;;;;;;;;5003130;28;20038;-76
2022/04/20 09:45:08;;;;;;;20.05;13.27;;;;;;;;;;4981542;28;20046;-78
2022/04/20 09:51:20;;;;;;;19.40;11.87;;;;;;;;;;4996823;28;20042;-78
2022/04/20 09:54:27;;;;;;;12.27;6.75;;;;;;;;;;4997139;28;20272;-79
2022/04/20 09:57:14;;;;;;;10.93;6.93;;;;;;;;;;4996771;28;20403;-77
2022/04/20 10:00:15;;;;;;;19.77;11.23;;;;;;;;;;4996111;28;20046;-78
2022/04/20 10:03:01;;;;;;;8.48;5.47;;;;;;;;;;4996433;28;20046;-78
2022/04/20 10:05:47;;;;;;;9.15;6.63;;;;;;;;;;5002817;28;20042;-76
2022/04/20 10:08:33;;;;;;;8.43;4.97;;;;;;;;;;4996722;28;20046;-76
2022/04/20 10:11:22;;;;;;;11.25;5.95;;;;;;;;;;5002672;28;20042;-76
2022/04/20 10:17:21;;;;;;;17.40;8.57;;;;;;;;;;4988115;28;20399;-77
2022/04/20 10:20:06;;;;;;;10.35;6.15;;;;;;;;;;5001629;28;20046;-75
2022/04/20 10:22:52;;;;;;;13.18;7.13;;;;;;;;;;5002826;28;20042;-75
2022/04/20 10:25:40;;;;;;;15.88;7.93;;;;;;;;;;4995883;28;20042;-76
2022/04/20 10:28:56;;;;;;;14.20;7.75;;;;;;;;;;4995827;28;20046;-76
2022/04/20 10:31:44;;;;;;;;;;;;;;;;;;4996233;28;20038;-74
2022/04/20 10:34:29;;;;;;;11.60;5.70;;;;;;;;;;4987340;28;19917;-75
2022/04/20 10:37:29;;;;;;;14.00;7.47;;;;;;;;;;4995696;28;20083;-76
2022/04/20 10:41:07;;;;;;;7.57;4.38;;;;;;;;;;4987437;28;20038;-76
2022/04/20 10:44:05;;;;;;;19.30;9.57;;;;;;;;;;4994155;28;20051;-76
2022/04/20 10:47:04;;;;;;;14.52;6.72;;;;;;;;;;5010590;28;20472;-77
2022/04/20 10:49:51;;;;;;;25.25;13.70;;;;;;;;;;4994855;28;20476;-77
2022/04/20 10:52:37;;;;;;;16.45;10.43;;;;;;;;;;4994309;28;20042;-76
2022/04/20 10:55:35;;;;;;;16.13;6.38;;;;;;;;;;4986562;28;20046;-76
2022/04/20 10:58:22;;;;;;;16.70;8.00;;;;;;;;;;4994923;28;20511;-77
2022/04/20 11:01:11;;;;;;;14.43;7.07;;;;;;;;;;4995204;28;20077;-76
2022/04/20 11:04:04;;;;;;;14.13;7.13;;;;;;;;;;4995535;28;20400;-76
2022/04/20 11:06:58;;;;;;;15.05;7.88;;;;;;;;;;5002154;28;20054;-76
2022/04/20 11:09:52;;;;;;;15.93;7.32;;;;;;;;;;4995478;28;20484;-77
2022/04/20 11:19:02;;;;;;;7.82;4.85;;;;;;;;;;4994766;28;20490;-76
2022/04/20 11:22:27;;;;;;;8.65;5.03;;;;;;;;;;4990153;28;20427;-75
2022/04/20 11:25:12;;;;;;;11.40;5.90;;;;;;;;;;4995345;28;20042;-77
2022/04/20 11:28:03;;;;;;;13.63;5.97;;;;;;;;;;5000955;28;20046;-76
2022/04/20 11:30:49;;;;;;;13.57;5.88;;;;;;;;;;5000250;28;20046;-75
2022/04/20 11:33:34;;;;;;;11.07;6.43;;;;;;;;;;4994488;28;20054;-76
2022/04/20 11:36:21;;;;;;;9.93;6.18;;;;;;;;;;4985781;28;20142;-76
2022/04/20 11:39:09;;;;;;;9.57;4.72;;;;;;;;;;5000121;28;20399;-76
2022/04/20 11:42:06;;;;;;;10.85;5.78;;;;;;;;;;4994238;28;20477;-77
2022/04/20 11:44:51;;;;;;;7.18;4.40;;;;;;;;;;4992879;28;20046;-78
2022/04/20 11:47:46;;;;;;;10.98;4.10;;;;;;;;;;4985788;28;20038;-77
2022/04/20 11:50:43;;;;;;;3.95;2.60;;;;;;;;;;4985368;28;20050;-78
2022/04/20 11:53:38;;;;;;;3.92;2.63;;;;;;;;;;4993380;28;20390;-77
2022/04/20 11:56:51;;;;;;;5.30;3.67;;;;;;;;;;4998677;28;20046;-77
2022/04/20 11:59:46;;;;;;;6.10;4.07;;;;;;;;;;4993500;28;20042;-77
2022/04/20 12:02:31;;;;;;;7.00;4.35;;;;;;;;;;4993310;28;20050;-78
2022/04/20 12:05:24;;;;;;;8.82;5.18;;;;;;;;;;4985681;28;20054;-78
2022/04/20 12:08:09;;;;;;;10.80;5.90;;;;;;;;;;4999820;28;20043;-77
2022/04/20 12:10:55;;;;;;;9.80;5.72;;;;;;;;;;4999934;28;20054;-76
2022/04/20 12:13:40;;;;;;;6.03;4.20;;;;;;;;;;4993695;28;20046;-78
2022/04/20 12:16:26;;;;;;;7.00;5.10;;;;;;;;;;4993251;28;20477;-76
2022/04/20 12:19:12;;;;;;;8.43;5.13;;;;;;;;;;4991668;28;20420;-78
2022/04/20 12:22:16;;;;;;;5.18;3.63;;;;;;;;;;4993470;28;20050;-76
2022/04/20 12:25:14;;;;;;;10.15;5.60;;;;;;;;;;5000121;28;20392;-78
2022/04/20 12:28:35;;;;;;;3.50;2.67;;;;;;;;;;4999190;28;20050;-77
2022/04/20 12:31:09;;;;;;;7.57;4.97;;;;;;;;;;4993674;28;20046;-75
2022/04/20 12:34:07;;;;;;;3.63;2.58;;;;;;;;;;5000833;28;20050;-77
2022/04/20 12:37:04;;;;;;;7.53;4.93;;;;;;;;;;5000629;28;20038;-75
2022/04/20 12:39:50;;;;;;;6.97;3.42;;;;;;;;;;4993928;28;20047;-75
2022/04/20 12:42:35;;;;;;;6.05;4.53;;;;;;;;;;5001956;28;20403;-75
2022/04/20 12:45:24;;;;;;;8.95;5.43;;;;;;;;;;4996727;28;20054;-76
2022/04/20 12:48:11;;;;;;;6.88;4.75;;;;;;;;;;4997609;28;20042;-76
2022/04/20 12:50:56;;;;;;;16.88;9.65;;;;;;;;;;4997569;28;20480;-76
2022/04/20 12:53:41;;;;;;;13.35;8.55;;;;;;;;;;5004281;28;20046;-76
2022/04/20 13:02:35;;;;;;;13.88;9.13;;;;;;;;;;5018600;28;20046;-77
2022/04/20 13:05:21;;;;;;;4.25;2.92;;;;;;;;;;4997822;28;20400;-77
2022/04/20 13:08:07;;;;;;;5.93;4.60;;;;;;;;;;4997064;28;20408;-76
2022/04/20 13:10:52;;;;;;;7.75;5.25;;;;;;;;;;4996458;28;20054;-75
2022/04/20 13:13:37;;;;;;;7.43;5.78;;;;;;;;;;4997363;28;20050;-76
2022/04/20 13:16:23;;;;;;;10.32;6.38;;;;;;;;;;4988776;28;20042;-76
2022/04/20 13:19:09;;;;;;;6.07;4.10;;;;;;;;;;4997299;28;20050;-76
2022/04/20 13:21:54;;;;;;;11.30;7.10;;;;;;;;;;4995887;28;20038;-76
2022/04/20 13:27:55;;;;;;;12.85;7.90;;;;;;;;;;4996890;28;20046;-76
2022/04/20 13:30:41;;;;;;;7.72;5.20;;;;;;;;;;5003322;28;20064;-77
2022/04/20 13:33:26;;;;;;;9.25;6.22;;;;;;;;;;4996637;28;20038;-76
2022/04/20 13:36:13;;;;;;;10.60;6.22;;;;;;;;;;5003447;28;20054;-76
2022/04/20 13:38:58;;;;;;;9.52;5.30;;;;;;;;;;4996665;28;20043;-76
2022/04/20 13:41:44;;;;;;;8.90;5.90;;;;;;;;;;4996571;28;20038;-76
2022/04/20 13:44:29;;;;;;;8.68;5.35;;;;;;;;;;4996128;28;20055;-76
2022/04/20 13:47:13;;;;;;;12.55;6.00;;;;;;;;;;5003205;28;20039;-76
2022/04/20 13:50:00;;;;;;;6.13;4.32;;;;;;;;;;5003289;28;20388;-76
2022/04/20 13:52:46;;;;;;;6.72;3.90;;;;;;;;;;4995150;28;20046;-76
2022/04/20 13:55:31;;;;;;;20.52;10.43;;;;;;;;;;4995971;28;20050;-75
2022/04/20 13:58:17;;;;;;;8.88;5.70;;;;;;;;;;5002589;28;20138;-75
2022/04/20 14:01:02;;;;;;;8.13;5.45;;;;;;;;;;4996243;28;20050;-76
2022/04/20 14:03:48;;;;;;;6.43;4.70;;;;;;;;;;4995624;28;20054;-77
2022/04/20 14:06:33;;;;;;;12.93;7.18;;;;;;;;;;4995249;28;20077;-75
2022/04/20 14:09:19;;;;;;;14.85;8.48;;;;;;;;;;4995531;28;20058;-74
2022/04/20 14:12:05;;;;;;;13.15;7.82;;;;;;;;;;4995892;28;20427;-77
2022/04/20 14:14:51;;;;;;;9.88;5.15;;;;;;;;;;5002544;28;20054;-76
2022/04/20 14:17:37;;;;;;;14.70;8.27;;;;;;;;;;4995823;28;20042;-75
2022/04/20 14:20:22;;;;;;;17.05;10.68;;;;;;;;;;4995739;28;20043;-75
2022/04/20 14:23:07;;;;;;;6.40;4.40;;;;;;;;;;4995634;28;20392;-76
2022/04/20 14:32:12;;;;;;;11.50;7.45;;;;;;;;;;4995170;28;20519;-76
2022/04/20 14:34:57;;;;;;;16.63;9.68;;;;;;;;;;4994559;28;20464;-76
2022/04/20 14:37:43;;;;;;;8.27;5.75;;;;;;;;;;5000727;28;20424;-76
2022/04/20 14:40:28;;;;;;;20.40;10.60;;;;;;;;;;5001873;28;20047;-76
2022/04/20 14:43:14;;;;;;;17.10;10.15;;;;;;;;;;4995338;28;20062;-76
2022/04/20 14:46:00;;;;;;;20.75;11.07;;;;;;;;;;4995095;28;20106;-75
2022/04/20 14:48:46;;;;;;;21.08;11.18;;;;;;;;;;4995087;28;20054;-76
2022/04/20 14:51:31;;;;;;;18.98;11.32;;;;;;;;;;4995183;28;20054;-75
2022/04/20 14:54:16;;;;;;;15.32;9.63;;;;;;;;;;5001647;28;20392;-76
2022/04/20 14:57:02;;;;;;;31.15;15.32;;;;;;;;;;4994930;28;20046;-76
2022/04/20 14:59:48;;;;;;;12.82;8.93;;;;;;;;;;4994829;28;20038;-76
2022/04/20 15:02:38;;;;;;;15.60;10.38;;;;;;;;;;4995165;28;20050;-76
2022/04/20 15:05:23;;;;;;;23.73;14.85;;;;;;;;;;4994827;28;20050;-75
2022/04/20 15:08:08;;;;;;;18.20;11.65;;;;;;;;;;5001405;28;20050;-75
2022/04/20 15:10:56;;;;;;;15.60;9.43;;;;;;;;;;4994786;28;20046;-76
2022/04/20 15:13:41;;;;;;;11.30;8.75;;;;;;;;;;4995333;28;20476;-77
2022/04/20 15:16:27;;;;;;;11.48;8.77;;;;;;;;;;4995284;28;20046;-76
2022/04/20 15:19:16;;;;;;;15.07;10.98;;;;;;;;;;5004141;28;20042;-76
2022/04/20 15:22:02;;;;;;;15.20;10.60;;;;;;;;;;4995894;28;20042;-75
2022/04/20 15:24:49;;;;;;;15.00;9.35;;;;;;;;;;5000906;28;20042;-77
2022/04/20 15:27:35;;;;;;;17.17;11.73;;;;;;;;;;5001276;28;20042;-76
2022/04/20 15:30:20;;;;;;;12.63;8.88;;;;;;;;;;5001320;28;20062;-76
2022/04/20 15:33:06;;;;;;;15.68;10.68;;;;;;;;;;4994417;28;20046;-76
2022/04/20 15:35:52;;;;;;;23.73;14.40;;;;;;;;;;4994887;28;20042;-76
2022/04/20 15:38:37;;;;;;;15.38;11.63;;;;;;;;;;4994777;28;20038;-76
2022/04/20 15:41:23;;;;;;;16.98;12.20;;;;;;;;;;4994418;28;20054;-75
2022/04/20 15:44:08;;;;;;;20.63;17.25;;;;;;;;;;4994031;28;20042;-75
2022/04/20 15:46:54;;;;;;;22.55;14.50;;;;;;;;;;5000644;28;20039;-75
2022/04/20 15:49:39;;;;;;;15.25;11.65;;;;;;;;;;4994709;28;20050;-75
2022/04/20 15:52:26;;;;;;;18.67;15.00;;;;;;;;;;4994314;28;20479;-75
2022/04/20 16:01:19;;;;;;;20.70;11.63;;;;;;;;;;4993909;28;20042;-75
2022/04/20 16:04:04;;;;;;;17.45;12.40;;;;;;;;;;5000418;28;20396;-76
2022/04/20 16:06:52;;;;;;;21.40;15.18;;;;;;;;;;5000872;28;20038;-76
2022/04/20 16:09:37;;;;;;;18.88;13.13;;;;;;;;;;4994241;28;20349;-75
2022/04/20 16:12:24;;;;;;;23.15;15.27;;;;;;;;;;4994232;28;20145;-76
2022/04/20 16:15:11;;;;;;;18.73;12.82;;;;;;;;;;4994202;28;20476;-76
2022/04/20 16:17:56;;;;;;;86.93;47.72;;;;;;;;;;4997632;28;20050;-76
2022/04/20 16:20:42;;;;;;;101.25;58.70;;;;;;;;;;5003280;28;20042;-75
2022/04/20 16:23:27;;;;;;;38.22;27.27;;;;;;;;;;4997793;28;20046;-75
2022/04/20 16:26:13;;;;;;;24.58;18.90;;;;;;;;;;5004962;28;20407;-76
2022/04/20 16:28:58;;;;;;;23.08;18.83;;;;;;;;;;4997978;28;20046;-76
2022/04/20 16:31:44;;;;;;;46.30;26.10;;;;;;;;;;4998126;28;20047;-76
2022/04/20 16:34:29;;;;;;;33.50;19.00;;;;;;;;;;5004279;28;20399;-74
2022/04/20 16:37:15;;;;;;;26.92;15.98;;;;;;;;;;5005191;28;20047;-77
2022/04/20 16:40:01;;;;;;;22.25;16.38;;;;;;;;;;5004238;28;20046;-76
2022/04/20 16:42:46;;;;;;;21.60;14.00;;;;;;;;;;4989596;28;20050;-76
2022/04/20 16:45:32;;;;;;;23.88;15.85;;;;;;;;;;4998164;28;20046;-76
2022/04/20 16:48:17;;;;;;;17.55;13.60;;;;;;;;;;4997586;28;20388;-76
2022/04/20 16:51:04;;;;;;;18.98;14.27;;;;;;;;;;4997718;28;20054;-76
2022/04/20 16:53:48;;;;;;;16.83;12.75;;;;;;;;;;5003357;28;20043;-77
2022/04/20 16:56:34;;;;;;;37.72;22.08;;;;;;;;;;4996018;28;20058;-77
2022/04/20 16:59:19;;;;;;;28.48;19.02;;;;;;;;;;5004117;28;20054;-77
2022/04/20 17:02:05;;;;;;;25.63;19.05;;;;;;;;;;5002478;28;20046;-76
2022/04/20 17:04:51;;;;;;;29.15;20.63;;;;;;;;;;4998160;28;20050;-76
2022/04/20 17:07:38;;;;;;;30.13;19.52;;;;;;;;;;4997533;28;20395;-76
2022/04/20 17:10:23;;;;;;;34.92;19.92;;;;;;;;;;4997260;28;20042;-77
2022/04/20 17:13:09;;;;;;;37.55;19.67;;;;;;;;;;4997213;28;20046;-77
2022/04/20 17:15:54;;;;;;;43.85;22.80;;;;;;;;;;4997094;28;20054;-77
2022/04/20 17:18:39;;;;;;;42.60;23.60;;;;;;;;;;5003907;28;20054;-77
2022/04/20 17:27:34;;;;;;;56.65;30.38;;;;;;;;;;5003419;28;20047;-78
2022/04/20 17:30:20;;;;;;;37.58;24.50;;;;;;;;;;5003727;28;20050;-78
2022/04/20 17:33:05;;;;;;;58.25;34.00;;;;;;;;;;4997293;28;20042;-78
2022/04/20 17:38:54;;;;;;;60.10;34.10;;;;;;;;;;5007398;28;20042;-77
2022/04/20 17:41:41;;;;;;;62.97;38.42;;;;;;;;;;4997061;28;20050;-79
2022/04/20 17:44:27;;;;;;;161.85;88.55;;;;;;;;;;4999062;28;20038;-79